Time;durP1;ratioP1;P1;durP2;ratioP2;P2;SDS_P1;SDS_P2;PMS_P1;PMS_P2;Temp;Humidity;BMP_temperature;BMP_pressure;BME280_temperature;BME280_humidity;BME280_pressure;Samples;Min_cycle;Max_cycle;Signal;HPM_P1;HPM_P2
2023/10/02 00:00:42;;;;;;;9.70;6.03;;;14.40;99.90;;;;;;5043832;28;20633;-61
2023/10/02 00:03:10;;;;;;;9.47;5.23;;;14.40;99.90;;;;;;5042112;28;20705;-61
2023/10/02 00:05:50;;;;;;;9.80;5.63;;;14.40;99.90;;;;;;5040594;28;20245;-60
2023/10/02 00:08:31;;;;;;;11.33;5.60;;;14.40;99.90;;;;;;5039995;28;20612;-60
2023/10/02 00:11:05;;;;;;;9.60;5.47;;;14.30;99.90;;;;;;5040638;28;20308;-60
2023/10/02 00:13:32;;;;;;;11.90;5.07;;;14.30;99.90;;;;;;5043545;28;20631;-60
2023/10/02 00:15:59;;;;;;;10.20;5.23;;;14.30;99.90;;;;;;5042669;28;20198;-59
2023/10/02 00:18:27;;;;;;;9.07;5.60;;;14.30;99.90;;;;;;5039990;28;20226;-60
2023/10/02 00:21:17;;;;;;;10.83;5.30;;;14.30;99.90;;;;;;5039602;28;20289;-61
2023/10/02 00:23:59;;;;;;;11.30;5.97;;;14.30;99.90;;;;;;5039650;28;20704;-60
2023/10/02 00:26:26;;;;;;;12.20;5.53;;;14.30;99.90;;;;;;5039731;28;20210;-60
2023/10/02 00:28:52;;;;;;;10.97;5.53;;;14.30;99.90;;;;;;5039665;28;20256;-59
2023/10/02 00:31:33;;;;;;;10.07;6.23;;;14.20;99.90;;;;;;5042844;28;20205;-57
2023/10/02 00:34:01;;;;;;;12.87;5.87;;;14.20;99.90;;;;;;5042577;28;20308;-58
2023/10/02 00:36:29;;;;;;;10.20;5.70;;;14.20;99.90;;;;;;5039542;28;20211;-58
2023/10/02 00:39:25;;;;;;;9.10;5.60;;;14.20;99.90;;;;;;5039614;28;20225;-57
2023/10/02 00:44:51;;;;;;;10.03;5.60;;;14.30;99.90;;;;;;5040182;28;20242;-59
2023/10/02 00:47:15;;;;;;;10.87;6.50;;;14.30;99.90;;;;;;5041940;28;20410;-59
2023/10/02 00:49:42;;;;;;;9.83;5.70;;;14.40;99.90;;;;;;5043028;28;20284;-58
2023/10/02 00:52:09;;;;;;;11.20;5.33;;;14.30;99.90;;;;;;5040781;28;20213;-58
2023/10/02 00:54:37;;;;;;;11.00;6.40;;;14.30;99.90;;;;;;5039660;28;20206;-58
2023/10/02 00:57:16;;;;;;;13.63;6.40;;;14.30;99.90;;;;;;5039988;28;20198;-58
2023/10/02 00:59:45;;;;;;;9.67;5.80;;;14.40;99.90;;;;;;5042995;28;20201;-59
2023/10/02 01:02:17;;;;;;;8.80;5.10;;;14.40;99.90;;;;;;5040566;28;20663;-58
2023/10/02 01:04:44;;;;;;;8.60;5.07;;;14.40;99.90;;;;;;5039022;28;20207;-59
2023/10/02 01:07:15;;;;;;;12.03;6.27;;;14.40;99.90;;;;;;5040913;28;20222;-60
2023/10/02 01:10:06;;;;;;;9.43;5.37;;;14.40;99.90;;;;;;5042819;28;20201;-59
2023/10/02 01:12:38;;;;;;;10.50;5.87;;;14.40;99.90;;;;;;5039231;28;20298;-58
2023/10/02 01:15:11;;;;;;;11.87;5.73;;;14.40;99.90;;;;;;5040108;28;20209;-58
2023/10/02 01:17:39;;;;;;;11.33;6.20;;;14.40;99.90;;;;;;5042426;28;20647;-58
2023/10/02 01:20:12;;;;;;;10.27;5.67;;;14.30;99.90;;;;;;5041288;28;20728;-58
2023/10/02 01:22:42;;;;;;;12.43;5.67;;;14.30;99.90;;;;;;5039149;28;20270;-58
2023/10/02 01:25:14;;;;;;;11.83;5.77;;;14.30;99.90;;;;;;5040482;28;20210;-58
2023/10/02 01:27:47;;;;;;;9.90;5.80;;;14.30;99.90;;;;;;5042136;28;20257;-58
2023/10/02 01:30:15;;;;;;;9.93;5.37;;;14.30;99.90;;;;;;5040402;28;20513;-58
2023/10/02 01:35:48;;;;;;;9.63;5.33;;;14.40;99.90;;;;;;5108962;27;20964;-58
2023/10/02 01:38:18;;;;;;;10.53;5.43;;;14.30;99.90;;;;;;5098850;28;20705;-58
2023/10/02 01:40:48;;;;;;;11.23;6.07;;;14.30;99.90;;;;;;5088787;28;20208;-58
2023/10/02 01:43:16;;;;;;;11.00;5.50;;;14.40;99.90;;;;;;5088519;28;20200;-57
2023/10/02 01:45:44;;;;;;;10.50;5.23;;;14.30;99.90;;;;;;5088370;28;20200;-58
2023/10/02 01:48:13;;;;;;;11.30;5.60;;;14.30;99.90;;;;;;5088295;28;20236;-61
2023/10/02 01:50:42;;;;;;;10.43;5.80;;;14.40;99.90;;;;;;5088252;28;20205;-60
2023/10/02 01:53:28;;;;;;;12.00;5.77;;;14.40;99.90;;;;;;5087968;28;20583;-60
2023/10/02 01:56:00;;;;;;;9.73;5.50;;;14.40;99.90;;;;;;5088195;28;20200;-61
2023/10/02 01:58:27;;;;;;;10.97;5.67;;;14.40;99.90;;;;;;5088206;28;20278;-60
2023/10/02 02:00:54;;;;;;;8.83;5.57;;;14.40;99.90;;;;;;5088226;28;20235;-58
2023/10/02 02:03:22;;;;;;;9.63;5.67;;;14.40;99.90;;;;;;5088113;28;20205;-59
2023/10/02 02:05:49;;;;;;;14.03;6.40;;;14.40;99.90;;;;;;5087906;28;20200;-59
2023/10/02 02:08:26;;;;;;;11.50;5.70;;;14.40;99.90;;;;;;5087865;28;20248;-60
2023/10/02 02:11:14;;;;;;;10.27;5.57;;;14.40;99.90;;;;;;5088022;28;20299;-60
2023/10/02 02:13:44;;;;;;;10.80;6.17;;;14.40;99.90;;;;;;5081787;28;20674;-60
2023/10/02 02:16:15;;;;;;;11.17;5.57;;;14.30;99.90;;;;;;5087627;28;20639;-60
2023/10/02 02:18:42;;;;;;;11.60;6.20;;;14.30;99.90;;;;;;5087980;28;20281;-61
2023/10/02 02:21:13;;;;;;;11.97;6.00;;;14.30;99.90;;;;;;5087787;28;20204;-61
2023/10/02 02:23:41;;;;;;;9.93;5.63;;;14.30;99.90;;;;;;5087645;28;20652;-61
2023/10/02 02:26:08;;;;;;;10.63;5.70;;;14.20;99.90;;;;;;5087405;28;20204;-61
2023/10/02 02:28:43;;;;;;;11.73;6.43;;;14.20;99.90;;;;;;5087748;28;20256;-61
2023/10/02 02:31:29;;;;;;;9.97;6.03;;;14.20;99.90;;;;;;5087462;28;20208;-60
2023/10/02 02:33:57;;;;;;;10.33;5.63;;;14.10;99.90;;;;;;5087782;28;20228;-60
2023/10/02 02:36:25;;;;;;;10.13;5.93;;;14.10;99.90;;;;;;5087226;28;20673;-61
2023/10/02 02:39:15;;;;;;;9.47;5.77;;;14.10;99.90;;;;;;5087581;28;20311;-60
2023/10/02 02:41:42;;;;;;;9.63;5.80;;;14.00;99.90;;;;;;5081503;28;20317;-60
2023/10/02 02:44:29;;;;;;;13.10;6.27;;;13.90;99.90;;;;;;5087283;28;20673;-59
2023/10/02 02:46:56;;;;;;;12.47;6.03;;;13.90;99.90;;;;;;5074646;28;20594;-60
2023/10/02 02:49:25;;;;;;;9.73;5.70;;;13.80;99.90;;;;;;5073756;28;20228;-59
2023/10/02 02:51:55;;;;;;;10.50;5.90;;;13.80;99.90;;;;;;5073823;28;20262;-59
2023/10/02 02:54:25;;;;;;;10.90;5.57;;;13.70;99.90;;;;;;5073759;28;20244;-61
2023/10/02 02:56:56;;;;;;;10.67;5.90;;;13.70;99.90;;;;;;5073423;28;20220;-59
2023/10/02 02:59:26;;;;;;;10.00;5.60;;;13.60;99.90;;;;;;5073277;28;20501;-61
2023/10/02 03:01:52;;;;;;;11.13;6.43;;;13.60;99.90;;;;;;5074004;28;20437;-61
2023/10/02 03:04:19;;;;;;;10.53;5.17;;;13.50;99.90;;;;;;5073607;28;20205;-61
2023/10/02 03:07:07;;;;;;;10.07;5.70;;;13.50;99.90;;;;;;5073519;28;20201;-59
2023/10/02 03:09:34;;;;;;;8.37;5.47;;;13.40;99.90;;;;;;5066534;28;20311;-60
2023/10/02 03:12:05;;;;;;;8.57;5.40;;;13.40;99.90;;;;;;5073997;28;20201;-60
2023/10/02 03:14:33;;;;;;;10.10;5.77;;;13.30;99.90;;;;;;5073842;28;20223;-60
2023/10/02 03:17:22;;;;;;;8.87;5.23;;;13.30;99.90;;;;;;5073593;28;20209;-59
2023/10/02 03:19:47;;;;;;;14.10;6.07;;;13.30;99.90;;;;;;5068005;28;20207;-60
2023/10/02 03:22:17;;;;;;;8.33;5.40;;;13.10;99.90;;;;;;5073258;28;20204;-60
2023/10/02 03:24:46;;;;;;;10.67;5.70;;;13.10;99.90;;;;;;5073174;28;20216;-59
2023/10/02 03:27:14;;;;;;;10.67;6.03;;;13.00;99.90;;;;;;5073059;28;20213;-60
2023/10/02 03:29:42;;;;;;;13.17;6.67;;;12.80;99.90;;;;;;5073035;28;20201;-60
2023/10/02 03:32:11;;;;;;;10.37;6.40;;;12.90;99.90;;;;;;5072815;28;20359;-60
2023/10/02 03:34:38;;;;;;;12.17;6.27;;;13.00;99.90;;;;;;5072529;28;20304;-60
2023/10/02 03:37:14;;;;;;;12.53;6.13;;;13.00;99.90;;;;;;5072851;28;20213;-59
2023/10/02 03:40:00;;;;;;;10.50;6.40;;;13.00;99.90;;;;;;5073251;28;20207;-60
2023/10/02 03:42:31;;;;;;;8.93;5.60;;;13.00;99.90;;;;;;5064624;28;20207;-58
2023/10/02 03:44:59;;;;;;;18.10;6.07;;;13.00;99.90;;;;;;5073454;28;20201;-60
2023/10/02 03:47:30;;;;;;;14.20;7.97;;;13.10;99.90;;;;;;5072859;28;20201;-60
2023/10/02 03:50:01;;;;;;;10.40;5.80;;;13.10;99.90;;;;;;5073437;28;20209;-60
2023/10/02 03:52:29;;;;;;;12.13;6.23;;;13.10;99.90;;;;;;5072818;28;20210;-61
2023/10/02 03:54:56;;;;;;;10.97;6.07;;;13.10;99.90;;;;;;5072371;28;20217;-60
2023/10/02 03:57:47;;;;;;;13.53;6.43;;;13.10;99.90;;;;;;5071135;28;20209;-59
2023/10/02 04:00:18;;;;;;;11.40;6.43;;;13.10;99.90;;;;;;5072509;28;20243;-60
2023/10/02 04:02:46;;;;;;;11.90;6.73;;;13.20;99.90;;;;;;5072192;28;20255;-62
2023/10/02 04:05:30;;;;;;;11.30;6.23;;;13.10;99.90;;;;;;5072002;28;20227;-60
2023/10/02 04:08:12;;;;;;;11.90;6.30;;;13.20;99.90;;;;;;5071837;28;20239;-59
2023/10/02 04:10:51;;;;;;;8.87;5.63;;;13.10;99.90;;;;;;5065841;28;20209;-59
2023/10/02 04:13:20;;;;;;;9.40;5.63;;;13.10;99.90;;;;;;5072007;28;20212;-60
2023/10/02 04:15:48;;;;;;;11.43;6.43;;;13.10;99.90;;;;;;5071940;28;20225;-60
2023/10/02 04:18:45;;;;;;;11.00;6.30;;;13.10;99.90;;;;;;5072083;28;20287;-59
2023/10/02 04:21:09;;;;;;;11.13;6.23;;;13.10;99.90;;;;;;5072161;28;20666;-60
2023/10/02 04:23:40;;;;;;;11.97;6.00;;;13.10;99.90;;;;;;5072161;28;20261;-60
2023/10/02 04:26:07;;;;;;;10.93;6.33;;;13.10;99.90;;;;;;5071505;28;20255;-60
2023/10/02 04:28:49;;;;;;;15.27;6.13;;;13.10;99.90;;;;;;5071617;28;20271;-60
2023/10/02 04:31:21;;;;;;;10.60;6.23;;;13.10;99.90;;;;;;5071740;28;20284;-60
2023/10/02 04:33:52;;;;;;;10.43;6.20;;;13.10;99.90;;;;;;5071882;28;20304;-60
2023/10/02 04:36:28;;;;;;;9.17;6.00;;;13.00;99.90;;;;;;5071279;28;20228;-60
2023/10/02 04:38:57;;;;;;;11.73;6.33;;;13.00;99.90;;;;;;5071734;28;20224;-60
2023/10/02 04:41:26;;;;;;;9.07;6.17;;;13.00;99.90;;;;;;5071062;28;20774;-59
2023/10/02 04:43:57;;;;;;;12.23;6.03;;;12.90;99.90;;;;;;5071315;28;20205;-62
2023/10/02 04:46:26;;;;;;;10.17;5.87;;;12.90;99.90;;;;;;5071044;28;20209;-62
2023/10/02 04:48:59;;;;;;;10.97;6.47;;;12.90;99.90;;;;;;5071362;28;20225;-60
2023/10/02 04:51:28;;;;;;;12.57;6.43;;;12.70;99.90;;;;;;5071194;28;20300;-59
2023/10/02 04:53:57;;;;;;;10.93;6.33;;;12.80;99.90;;;;;;5071206;28;20205;-60
2023/10/02 04:56:24;;;;;;;11.07;5.50;;;12.80;99.90;;;;;;5070986;28;20594;-59
2023/10/02 04:58:52;;;;;;;10.40;6.73;;;12.80;99.90;;;;;;5071226;28;20290;-60
2023/10/02 05:01:25;;;;;;;12.43;6.97;;;12.90;99.90;;;;;;5071262;28;20205;-59
2023/10/02 05:03:53;;;;;;;10.13;6.37;;;12.90;99.90;;;;;;5071120;28;20479;-61
2023/10/02 05:09:19;;;;;;;10.60;6.10;;;12.90;99.90;;;;;;5070694;28;20293;-60
2023/10/02 05:11:50;;;;;;;9.53;6.27;;;13.00;99.90;;;;;;5065320;28;20213;-59
2023/10/02 05:14:26;;;;;;;10.33;6.67;;;13.00;99.90;;;;;;5070880;28;20235;-60
2023/10/02 05:16:53;;;;;;;14.30;7.37;;;13.00;99.90;;;;;;5070870;28;20665;-59
2023/10/02 05:19:54;;;;;;;12.10;6.50;;;13.00;99.90;;;;;;5071225;28;20228;-60
2023/10/02 05:22:08;;;;;;;11.93;6.30;;;13.10;99.90;;;;;;5070722;28;20236;-60
2023/10/02 05:24:35;;;;;;;9.87;6.13;;;13.20;99.90;;;;;;5070996;28;20212;-60
2023/10/02 05:27:04;;;;;;;11.33;6.87;;;13.20;99.90;;;;;;5070791;28;20205;-60
2023/10/02 05:29:40;;;;;;;10.33;6.53;;;13.30;99.90;;;;;;5062759;28;20217;-59
2023/10/02 05:32:19;;;;;;;11.03;6.80;;;13.30;99.90;;;;;;5070867;28;20249;-60
2023/10/02 05:35:03;;;;;;;13.10;6.47;;;13.40;99.90;;;;;;5070915;28;20267;-60
2023/10/02 05:37:31;;;;;;;10.90;6.90;;;13.40;99.90;;;;;;5062183;28;20217;-59
2023/10/02 05:40:37;;;;;;;12.27;6.77;;;13.50;99.90;;;;;;5070888;28;20239;-60
2023/10/02 05:42:53;;;;;;;12.03;6.33;;;13.60;99.90;;;;;;5064714;28;20351;-59
2023/10/02 05:45:37;;;;;;;11.63;7.50;;;13.70;99.90;;;;;;5070706;28;20192;-59
2023/10/02 05:48:08;;;;;;;11.70;6.70;;;13.70;99.90;;;;;;5070214;28;20225;-58
2023/10/02 05:50:38;;;;;;;11.87;6.20;;;13.70;99.90;;;;;;5063002;28;20299;-58
2023/10/02 05:53:06;;;;;;;18.60;6.80;;;13.80;99.90;;;;;;5070779;28;20629;-57
2023/10/02 05:55:56;;;;;;;10.40;6.37;;;13.80;99.90;;;;;;5062376;28;20255;-57
2023/10/02 05:58:27;;;;;;;13.57;6.23;;;13.90;99.90;;;;;;5069918;28;20229;-58
2023/10/02 06:00:55;;;;;;;12.10;5.80;;;13.90;99.90;;;;;;5070605;28;20682;-58
2023/10/02 06:03:22;;;;;;;13.17;7.03;;;14.10;99.90;;;;;;5070435;28;20209;-57
2023/10/02 06:08:33;;;;;;;11.20;6.70;;;14.20;99.90;;;;;;5061903;28;20691;-57
2023/10/02 06:11:08;;;;;;;9.50;5.87;;;14.30;99.90;;;;;;5070308;28;20618;-57
2023/10/02 06:13:37;;;;;;;11.73;6.63;;;14.40;99.90;;;;;;5062457;28;20213;-57
2023/10/02 06:16:07;;;;;;;14.07;6.67;;;14.40;99.90;;;;;;5070325;28;20224;-58
2023/10/02 06:18:34;;;;;;;12.83;6.97;;;14.60;99.90;;;;;;5062508;28;20278;-57
2023/10/02 06:21:02;;;;;;;12.23;6.67;;;14.90;99.90;;;;;;5071648;28;20201;-58
2023/10/02 06:23:37;;;;;;;11.93;6.43;;;15.30;99.90;;;;;;5074077;28;20205;-58
2023/10/02 06:26:04;;;;;;;12.63;6.30;;;15.80;99.90;;;;;;5074112;28;20205;-58
2023/10/02 06:28:30;;;;;;;10.20;5.57;;;16.40;99.90;;;;;;5073919;28;20225;-58
2023/10/02 06:30:57;;;;;;;13.68;6.18;;;17.10;99.90;;;;;;5073870;28;20205;-58
2023/10/02 06:33:24;;;;;;;13.75;6.03;;;17.90;99.90;;;;;;5073859;28;20208;-58
2023/10/02 06:36:00;;;;;;;8.70;5.47;;;18.80;99.90;;;;;;5073645;28;20284;-58
2023/10/02 06:38:29;;;;;;;13.10;6.45;;;19.80;99.90;;;;;;5073645;28;20229;-58
2023/10/02 06:40:56;;;;;;;8.38;5.47;;;20.70;99.90;;;;;;5073980;28;20254;-58
2023/10/02 06:43:29;;;;;;;12.10;6.15;;;21.70;99.90;;;;;;5073700;28;20216;-58
2023/10/02 06:46:06;;;;;;;10.88;5.95;;;22.10;99.90;;;;;;5073631;28;20670;-57
2023/10/02 06:48:34;;;;;;;9.20;5.85;;;22.70;99.90;;;;;;5065492;28;20227;-58
2023/10/02 06:51:02;;;;;;;12.95;6.63;;;23.20;99.90;;;;;;5073942;28;20291;-58
2023/10/02 06:53:30;;;;;;;15.20;7.00;;;23.80;99.90;;;;;;5073490;28;20270;-58
2023/10/02 06:56:06;;;;;;;11.77;6.40;;;24.30;99.90;;;;;;5073371;28;20231;-58
2023/10/02 06:58:46;;;;;;;12.25;6.32;;;24.90;99.90;;;;;;5065464;28;20689;-58
2023/10/02 07:01:13;;;;;;;11.15;6.85;;;25.60;99.90;;;;;;5073754;28;20258;-58
2023/10/02 07:03:40;;;;;;;11.25;6.65;;;26.30;99.90;;;;;;5073478;28;20212;-57
2023/10/02 07:06:08;;;;;;;11.90;7.10;;;26.90;99.90;;;;;;5073363;28;20205;-58
2023/10/02 07:08:39;;;;;;;10.23;6.28;;;27.40;99.90;;;;;;5065420;28;20656;-58
2023/10/02 07:11:11;;;;;;;13.00;7.45;;;27.80;99.90;;;;;;5073504;28;20211;-58
2023/10/02 07:13:50;;;;;;;13.57;7.45;;;28.10;99.90;;;;;;5065437;28;20213;-57
2023/10/02 07:16:18;;;;;;;11.38;7.70;;;28.40;99.90;;;;;;5072888;28;20225;-57
2023/10/02 07:18:49;;;;;;;11.60;7.03;;;28.50;99.90;;;;;;5073093;28;20606;-57
2023/10/02 07:21:19;;;;;;;10.95;6.63;;;28.50;99.90;;;;;;5073177;28;20288;-58
2023/10/02 07:23:48;;;;;;;9.90;6.43;;;28.40;99.90;;;;;;5073982;28;20196;-58
2023/10/02 07:26:16;;;;;;;10.48;6.32;;;28.30;99.90;;;;;;5072916;28;20650;-57
2023/10/02 07:28:50;;;;;;;10.98;6.28;;;28.20;99.80;;;;;;5073262;28;20231;-56
2023/10/02 07:31:17;;;;;;;14.40;6.50;;;28.00;99.80;;;;;;5073096;28;20211;-59
2023/10/02 07:33:44;;;;;;;13.10;6.55;;;27.50;99.90;;;;;;5074480;28;20220;-59
2023/10/02 07:36:14;;;;;;;12.00;7.13;;;26.90;99.90;;;;;;5074543;28;20228;-58
2023/10/02 07:38:42;;;;;;;9.88;6.43;;;26.10;99.90;;;;;;5075359;28;20230;-57
2023/10/02 07:41:16;;;;;;;11.27;6.90;;;25.10;99.90;;;;;;5073698;28;20323;-58
2023/10/02 07:43:43;;;;;;;14.52;6.30;;;24.00;99.90;;;;;;5066001;28;20650;-58
2023/10/02 07:46:15;;;;;;;11.63;6.82;;;23.00;99.90;;;;;;5073005;28;20205;-58
2023/10/02 07:48:43;;;;;;;11.32;6.38;;;22.20;99.90;;;;;;5077598;22;20268;-54
2023/10/02 07:51:10;;;;;;;10.27;6.50;;;21.60;99.90;;;;;;5052331;28;20213;-55
2023/10/02 07:53:39;;;;;;;13.98;7.10;;;21.10;99.90;;;;;;5052654;28;20289;-56
2023/10/02 07:56:07;;;;;;;10.70;6.45;;;20.80;99.90;;;;;;5051857;28;20221;-55
2023/10/02 07:58:35;;;;;;;12.35;7.45;;;20.50;99.90;;;;;;5043696;28;20599;-56
2023/10/02 08:01:11;;;;;;;11.73;6.50;;;20.20;99.90;;;;;;5044127;28;20312;-55
2023/10/02 08:03:43;;;;;;;42.80;9.73;;;20.00;99.90;;;;;;5040329;28;20296;-57
2023/10/02 08:06:21;;;;;;;20.63;7.93;;;19.70;99.90;;;;;;5040325;28;20202;-60
2023/10/02 08:09:23;;;;;;;35.03;8.75;;;19.60;99.90;;;;;;5043623;28;20741;-56
2023/10/02 08:11:35;;;;;;;13.43;6.75;;;19.50;99.90;;;;;;5040107;28;20576;-55
2023/10/02 08:14:05;;;;;;;14.60;6.57;;;19.40;99.90;;;;;;5040029;28;20632;-55
2023/10/02 08:16:58;;;;;;;17.00;7.97;;;19.50;99.90;;;;;;5043091;28;20244;-56
2023/10/02 08:19:20;;;;;;;47.65;9.93;;;19.60;99.90;;;;;;5042066;28;20212;-57
2023/10/02 08:21:47;;;;;;;40.30;8.27;;;19.60;99.90;;;;;;5040251;28;20214;-56
2023/10/02 08:24:14;;;;;;;25.40;7.18;;;19.70;99.90;;;;;;5040500;28;20206;-57
2023/10/02 08:26:43;;;;;;;19.25;6.93;;;19.90;99.90;;;;;;5043284;28;20233;-56
2023/10/02 08:29:13;;;;;;;15.60;7.15;;;19.90;99.90;;;;;;5043380;28;20575;-57
2023/10/02 08:31:43;;;;;;;30.55;9.35;;;19.90;99.90;;;;;;5039616;28;20234;-57
2023/10/02 08:34:12;;;;;;;32.05;7.50;;;20.10;99.90;;;;;;5039582;28;20210;-61
2023/10/02 08:36:39;;;;;;;12.02;6.93;;;20.20;99.90;;;;;;5042614;28;20608;-57
2023/10/02 08:39:08;;;;;;;10.65;6.60;;;20.30;99.90;;;;;;5042949;28;20212;-57
2023/10/02 08:41:43;;;;;;;14.63;6.63;;;20.50;99.90;;;;;;5039920;28;20234;-56
2023/10/02 08:44:13;;;;;;;11.60;6.53;;;20.60;99.90;;;;;;5039164;28;20488;-55
2023/10/02 08:46:42;;;;;;;16.77;7.70;;;20.80;99.90;;;;;;5042618;28;20201;-56
2023/10/02 08:49:13;;;;;;;12.10;7.20;;;20.90;99.90;;;;;;5043033;28;20241;-54
2023/10/02 08:51:48;;;;;;;12.18;6.70;;;21.00;99.90;;;;;;5032541;28;20233;-54
2023/10/02 08:54:15;;;;;;;13.30;6.63;;;21.00;99.90;;;;;;5039822;28;20242;-55
2023/10/02 08:56:44;;;;;;;11.75;6.30;;;21.00;99.90;;;;;;5042500;28;20487;-55
2023/10/02 08:59:17;;;;;;;11.90;6.80;;;21.10;99.90;;;;;;5042520;28;20202;-58
2023/10/02 09:01:48;;;;;;;15.85;7.25;;;21.10;99.90;;;;;;5038885;28;20210;-55
2023/10/02 09:04:29;;;;;;;13.43;6.90;;;21.30;99.90;;;;;;5039814;28;20305;-56
2023/10/02 09:06:59;;;;;;;10.25;6.63;;;21.20;99.90;;;;;;5042503;28;20366;-55
2023/10/02 09:09:35;;;;;;;11.95;6.82;;;21.30;99.90;;;;;;5040271;28;20742;-55
2023/10/02 09:12:03;;;;;;;13.27;6.72;;;21.30;99.90;;;;;;5038869;28;20263;-56
2023/10/02 09:17:20;;;;;;;9.77;6.65;;;21.60;99.90;;;;;;5042210;28;20232;-55
2023/10/02 09:19:58;;;;;;;11.57;6.47;;;21.70;99.90;;;;;;5039603;28;20217;-56
2023/10/02 09:22:28;;;;;;;10.98;6.70;;;21.80;99.90;;;;;;5040906;28;20210;-55
2023/10/02 09:25:12;;;;;;;10.73;6.35;;;22.00;99.90;;;;;;5042647;28;20209;-54
2023/10/02 09:27:55;;;;;;;10.50;6.30;;;22.10;99.90;;;;;;5031777;28;20226;-55
2023/10/02 09:30:36;;;;;;;9.82;6.28;;;22.30;99.90;;;;;;5040558;28;20603;-55
2023/10/02 09:33:08;;;;;;;11.25;6.95;;;22.50;99.90;;;;;;5043093;28;20209;-55
2023/10/02 09:35:41;;;;;;;14.45;7.07;;;22.70;99.90;;;;;;5039403;28;20269;-55
2023/10/02 09:38:12;;;;;;;13.35;6.78;;;22.80;99.90;;;;;;5038617;28;20309;-55
2023/10/02 09:40:58;;;;;;;11.32;7.03;;;22.90;99.90;;;;;;5031213;28;20216;-57
2023/10/02 09:43:27;;;;;;;11.70;7.25;;;23.00;99.90;;;;;;5040376;28;20663;-54
2023/10/02 09:45:58;;;;;;;12.23;7.20;;;23.20;99.90;;;;;;5041608;28;20210;-55
2023/10/02 09:51:38;;;;;;;10.45;6.28;;;23.40;99.90;;;;;;5038210;28;20270;-58
2023/10/02 09:54:13;;;;;;;14.38;7.47;;;23.50;99.90;;;;;;5032336;28;20615;-57
2023/10/02 09:56:53;;;;;;;13.90;6.90;;;23.60;99.90;;;;;;5040652;28;20617;-61
2023/10/02 09:59:22;;;;;;;14.57;7.20;;;23.70;99.90;;;;;;5045228;28;20212;-57
2023/10/02 10:08:27;;;;;;;12.38;7.93;;;23.90;99.90;;;;;;5033585;28;20245;-61
2023/10/02 10:10:57;;;;;;;14.40;8.30;;;24.00;99.90;;;;;;5027985;28;20210;-59
2023/10/02 10:13:32;;;;;;;13.13;7.63;;;24.10;99.90;;;;;;5033344;28;20735;-58
2023/10/02 10:16:34;;;;;;;14.73;9.95;;;24.20;99.90;;;;;;5032772;28;20217;-59
2023/10/02 10:19:31;;;;;;;13.45;8.05;;;24.40;99.90;;;;;;5028333;28;20213;-58
2023/10/02 10:21:58;;;;;;;16.13;8.52;;;24.60;99.90;;;;;;5027861;28;20207;-57
2023/10/02 10:24:56;;;;;;;15.45;8.57;;;24.80;99.90;;;;;;5033101;28;20216;-58
2023/10/02 10:27:54;;;;;;;16.02;9.27;;;24.80;99.90;;;;;;5030376;28;20237;-60
2023/10/02 10:30:44;;;;;;;14.70;8.75;;;24.80;99.90;;;;;;5030719;28;20331;-58
2023/10/02 10:33:41;;;;;;;15.55;9.07;;;24.90;99.90;;;;;;5032886;28;20250;-60
2023/10/02 10:36:37;;;;;;;15.00;9.30;;;25.10;99.90;;;;;;5029168;28;20206;-58
2023/10/02 10:39:34;;;;;;;17.48;9.60;;;25.20;99.90;;;;;;5029039;28;20216;-59
2023/10/02 10:42:05;;;;;;;14.43;8.55;;;25.40;99.90;;;;;;5028063;28;20312;-59
2023/10/02 10:44:33;;;;;;;15.13;9.02;;;25.60;99.90;;;;;;5031458;28;20612;-60
2023/10/02 10:47:03;;;;;;;18.52;8.95;;;25.60;99.90;;;;;;5031493;28;20257;-59
2023/10/02 10:49:52;;;;;;;14.75;8.80;;;25.60;99.90;;;;;;5030983;28;20210;-58
2023/10/02 10:52:34;;;;;;;17.27;9.07;;;25.60;99.90;;;;;;5032615;28;20249;-57
2023/10/02 10:55:04;;;;;;;17.35;9.45;;;25.60;99.90;;;;;;5033205;28;20218;-59
2023/10/02 10:57:51;;;;;;;14.70;9.23;;;25.80;99.90;;;;;;5032769;28;20234;-60
2023/10/02 11:00:31;;;;;;;14.20;8.20;;;26.00;99.90;;;;;;5032761;28;20260;-59
2023/10/02 11:03:01;;;;;;;16.80;8.90;;;26.10;99.90;;;;;;5032787;28;20309;-60
2023/10/02 11:05:33;;;;;;;15.93;9.07;;;26.10;99.90;;;;;;5032196;28;20677;-60
2023/10/02 11:08:23;;;;;;;15.13;9.48;;;26.20;99.90;;;;;;5032152;28;20230;-60
2023/10/02 11:11:00;;;;;;;14.85;9.13;;;26.20;99.90;;;;;;5033115;28;20344;-61
2023/10/02 11:13:28;;;;;;;14.75;8.95;;;26.20;99.90;;;;;;5032619;28;20553;-61
2023/10/02 11:16:07;;;;;;;16.55;9.50;;;26.30;99.90;;;;;;5040480;28;20210;-61
2023/10/02 11:18:39;;;;;;;14.20;8.75;;;26.30;99.90;;;;;;5035639;28;20236;-59
2023/10/02 11:21:22;;;;;;;15.57;8.98;;;26.60;99.90;;;;;;5044668;28;20585;-58
2023/10/02 11:23:53;;;;;;;15.43;9.48;;;26.50;99.90;;;;;;5034188;28;20233;-59
2023/10/02 11:26:23;;;;;;;16.13;9.95;;;26.60;99.90;;;;;;5041402;28;20202;-61
2023/10/02 11:28:50;;;;;;;16.15;9.40;;;26.80;99.90;;;;;;5044385;28;20233;-59
2023/10/02 11:31:30;;;;;;;20.85;9.82;;;26.90;99.90;;;;;;5044034;28;20205;-59
2023/10/02 11:34:04;;;;;;;15.98;9.38;;;26.90;99.90;;;;;;5040806;28;20214;-55
2023/10/02 11:36:35;;;;;;;18.70;10.60;;;26.80;99.90;;;;;;5044471;28;20276;-55
2023/10/02 11:39:09;;;;;;;18.50;9.75;;;26.80;99.90;;;;;;5045695;28;20202;-56
2023/10/02 11:41:37;;;;;;;16.80;9.63;;;26.80;99.90;;;;;;5042306;28;20210;-56
2023/10/02 11:44:06;;;;;;;15.63;9.23;;;26.90;99.60;;;;;;5040801;28;20213;-57
2023/10/02 11:46:33;;;;;;;14.60;8.90;;;26.90;99.50;;;;;;5042565;28;20584;-56
2023/10/02 11:49:00;;;;;;;16.30;9.48;;;27.00;99.30;;;;;;5044501;28;20205;-59
2023/10/02 11:51:28;;;;;;;17.67;9.43;;;27.20;98.90;;;;;;5042292;28;20284;-56
2023/10/02 11:53:56;;;;;;;16.05;9.52;;;27.30;98.20;;;;;;5040512;28;20213;-56
2023/10/02 11:56:25;;;;;;;15.50;10.23;;;27.40;97.90;;;;;;5040876;28;20209;-56
2023/10/02 11:58:52;;;;;;;16.80;9.90;;;27.40;98.50;;;;;;5043958;28;20312;-56
2023/10/02 12:01:19;;;;;;;22.02;10.63;;;27.50;97.80;;;;;;5043434;28;20229;-55
2023/10/02 12:03:46;;;;;;;16.92;9.40;;;27.50;98.00;;;;;;5040798;28;20547;-56
2023/10/02 12:06:14;;;;;;;17.92;9.52;;;27.50;98.10;;;;;;5040411;28;20203;-57
2023/10/02 12:08:40;;;;;;;18.17;9.73;;;27.50;98.30;;;;;;5043304;28;20703;-57
2023/10/02 12:11:08;;;;;;;16.83;10.55;;;27.60;98.70;;;;;;5043683;28;20205;-59
2023/10/02 12:13:36;;;;;;;15.43;9.60;;;27.60;98.40;;;;;;5040974;28;20253;-56
2023/10/02 12:16:05;;;;;;;16.50;9.45;;;27.80;98.50;;;;;;5040069;28;20222;-57
2023/10/02 12:18:32;;;;;;;16.27;9.70;;;27.80;98.70;;;;;;5041089;28;20226;-56
2023/10/02 12:20:59;;;;;;;17.70;10.25;;;27.90;98.50;;;;;;5043673;28;20198;-56
2023/10/02 12:23:28;;;;;;;17.52;10.07;;;28.00;97.20;;;;;;5042420;28;20221;-55
2023/10/02 12:25:55;;;;;;;17.02;10.13;;;28.10;97.10;;;;;;5040249;28;20309;-57
2023/10/02 12:28:22;;;;;;;20.63;11.20;;;28.10;96.70;;;;;;5040659;28;20222;-57
2023/10/02 12:30:50;;;;;;;17.63;10.75;;;28.20;96.20;;;;;;5043705;28;20224;-57
2023/10/02 12:33:17;;;;;;;21.98;11.73;;;28.20;96.00;;;;;;5043382;28;20213;-56
2023/10/02 12:35:44;;;;;;;19.98;11.43;;;28.30;95.60;;;;;;5039845;28;20205;-56
2023/10/02 12:38:13;;;;;;;19.85;10.40;;;28.40;95.30;;;;;;5039550;28;20662;-57
2023/10/02 12:40:40;;;;;;;18.23;10.63;;;28.40;95.20;;;;;;5042753;28;20197;-56
2023/10/02 12:43:09;;;;;;;21.75;11.38;;;28.30;95.10;;;;;;5043071;28;20197;-56
2023/10/02 12:45:36;;;;;;;17.23;10.55;;;28.20;95.50;;;;;;5040443;28;20214;-56
2023/10/02 12:48:08;;;;;;;19.08;11.15;;;28.20;95.60;;;;;;5039377;28;20661;-55
2023/10/02 12:50:39;;;;;;;21.98;11.35;;;28.20;95.60;;;;;;5041709;28;20202;-56
2023/10/02 12:53:06;;;;;;;19.13;10.80;;;28.30;95.10;;;;;;5042899;28;20296;-56
2023/10/02 12:55:34;;;;;;;20.38;11.45;;;28.30;95.60;;;;;;5040746;28;20202;-61
2023/10/02 12:58:03;;;;;;;20.65;11.32;;;28.40;95.80;;;;;;5039122;28;20227;-61
2023/10/02 13:00:31;;;;;;;17.80;11.02;;;28.50;95.20;;;;;;5040956;28;20206;-55
2023/10/02 13:02:58;;;;;;;17.27;10.85;;;28.60;95.20;;;;;;5042570;28;20581;-56
2023/10/02 13:05:26;;;;;;;18.92;10.82;;;28.60;94.90;;;;;;5041277;28;20557;-55
2023/10/02 13:07:55;;;;;;;17.75;10.35;;;28.70;94.70;;;;;;5038929;28;20703;-55
2023/10/02 13:10:23;;;;;;;17.88;10.85;;;28.80;94.80;;;;;;5040117;28;20249;-56
2023/10/02 13:12:50;;;;;;;18.27;10.27;;;28.80;94.50;;;;;;5042482;28;20635;-56
2023/10/02 13:15:17;;;;;;;18.33;11.27;;;28.80;94.50;;;;;;5042692;28;20225;-56
2023/10/02 13:17:44;;;;;;;20.17;10.80;;;28.90;94.50;;;;;;5042319;28;20249;-57
2023/10/02 13:20:12;;;;;;;19.40;11.73;;;28.90;94.10;;;;;;5042408;28;20202;-57
2023/10/02 13:22:40;;;;;;;19.38;10.98;;;29.00;93.60;;;;;;5039672;28;20217;-56
2023/10/02 13:25:11;;;;;;;21.33;11.70;;;29.10;93.40;;;;;;5039113;28;20206;-56
2023/10/02 13:27:39;;;;;;;19.13;11.88;;;29.30;93.30;;;;;;5041095;28;20630;-57